createdAt,value
2023-02-04T00:01:45.309Z,35.60
2023-02-04T00:04:13.660Z,31.90
2023-02-04T00:06:42.537Z,34.30
2023-02-04T00:09:10.748Z,34.30
2023-02-04T00:11:41.223Z,25.10
2023-02-04T00:14:09.613Z,23.10
2023-02-04T00:16:37.830Z,32.50
2023-02-04T00:19:06.104Z,32.00
2023-02-04T00:21:35.063Z,28.40
2023-02-04T00:24:04.273Z,24.70
2023-02-04T00:26:32.444Z,22.80
2023-02-04T00:29:00.853Z,25.00
2023-02-04T00:31:29.495Z,36.90
2023-02-04T00:33:59.722Z,26.80
2023-02-04T00:36:27.760Z,26.60
2023-02-04T00:38:56.166Z,29.00
2023-02-04T00:41:24.522Z,47.50
2023-02-04T00:43:52.900Z,62.80
2023-02-04T00:46:21.059Z,44.40
2023-02-04T00:48:49.746Z,56.60
2023-02-04T00:51:17.974Z,77.20
2023-02-04T00:53:46.301Z,42.90
2023-02-04T00:56:14.456Z,38.70
2023-02-04T00:58:43.169Z,39.00
2023-02-04T01:01:11.522Z,48.50
2023-02-04T01:03:39.736Z,44.00
2023-02-04T01:06:08.206Z,29.40
2023-02-04T01:08:36.985Z,36.00
2023-02-04T01:11:05.484Z,34.60
2023-02-04T01:13:34.268Z,30.80
2023-02-04T01:16:03.019Z,35.40
2023-02-04T01:18:32.651Z,33.80
2023-02-04T01:21:01.050Z,30.90
2023-02-04T01:23:29.649Z,34.90
2023-02-04T01:25:58.231Z,33.30
2023-02-04T01:28:27.518Z,34.70
2023-02-04T01:30:56.139Z,30.30
2023-02-04T01:33:24.901Z,33.20
2023-02-04T01:35:53.999Z,28.50
2023-02-04T01:38:22.379Z,30.90
2023-02-04T01:40:50.964Z,32.60
2023-02-04T01:43:22.493Z,27.50
2023-02-04T01:45:51.338Z,30.30
2023-02-04T01:48:20.634Z,30.30
2023-02-04T01:50:54.112Z,28.80
2023-02-04T01:53:25.262Z,26.90
2023-02-04T01:55:53.534Z,30.20
2023-02-04T01:58:21.982Z,27.40
2023-02-04T02:00:51.363Z,27.70
2023-02-04T02:03:19.705Z,33.70
2023-02-04T02:05:52.301Z,35.10
2023-02-04T02:08:20.797Z,25.40
2023-02-04T02:10:48.973Z,34.00
2023-02-04T02:13:19.274Z,33.30
2023-02-04T02:15:47.786Z,30.80
2023-02-04T02:18:20.125Z,40.60
2023-02-04T02:20:48.717Z,31.50
2023-02-04T02:23:26.302Z,40.00
2023-02-04T02:25:54.679Z,38.20
2023-02-04T02:28:23.475Z,35.20
2023-02-04T02:30:51.922Z,36.00
2023-02-04T02:33:20.864Z,43.00
2023-02-04T02:35:49.127Z,41.10
2023-02-04T02:38:18.394Z,36.00
2023-02-04T02:40:48.241Z,33.20
2023-02-04T02:45:46.098Z,36.40
2023-02-04T02:48:14.811Z,33.50
2023-02-04T02:50:42.992Z,35.20
2023-02-04T02:53:18.876Z,32.90
2023-02-04T02:55:47.529Z,35.60
2023-02-04T02:58:30.012Z,30.90
2023-02-04T03:00:58.666Z,31.10
2023-02-04T03:03:28.804Z,27.70
2023-02-04T03:06:18.027Z,28.70
2023-02-04T03:08:47.039Z,32.50
2023-02-04T03:11:15.959Z,28.80
2023-02-04T03:13:44.800Z,29.10
2023-02-04T03:16:13.081Z,27.00
2023-02-04T03:18:41.683Z,31.90
2023-02-04T03:21:11.956Z,27.90
2023-02-04T03:23:40.477Z,29.80
2023-02-04T03:26:08.964Z,24.10
2023-02-04T03:28:41.172Z,19.40
2023-02-04T03:31:09.676Z,21.10
2023-02-04T03:33:37.819Z,20.20
2023-02-04T03:36:06.978Z,26.20
2023-02-04T03:38:37.930Z,19.90
2023-02-04T03:41:06.249Z,26.00
2023-02-04T03:43:34.693Z,26.90
2023-02-04T03:46:02.889Z,20.90
2023-02-04T03:48:31.444Z,21.50
2023-02-04T03:50:59.837Z,18.00
2023-02-04T03:53:28.220Z,18.10
2023-02-04T03:55:56.488Z,17.90
2023-02-04T03:58:24.968Z,16.40
2023-02-04T04:00:53.556Z,13.90
2023-02-04T04:03:21.933Z,14.10
2023-02-04T04:05:50.560Z,12.40
2023-02-04T04:08:19.535Z,11.30
2023-02-04T04:10:48.003Z,12.00
2023-02-04T04:13:16.383Z,14.70
2023-02-04T04:15:45.669Z,15.00
2023-02-04T04:18:14.168Z,12.10
2023-02-04T04:20:42.502Z,16.20
2023-02-04T04:23:10.833Z,10.00
2023-02-04T04:25:39.376Z,10.10
2023-02-04T04:28:08.286Z,12.40
2023-02-04T04:30:37.159Z,11.70
2023-02-04T04:33:06.604Z,10.60
2023-02-04T04:35:37.123Z,12.60
2023-02-04T04:38:05.299Z,13.00
2023-02-04T04:40:34.172Z,13.50
2023-02-04T04:43:03.093Z,12.10
2023-02-04T04:45:31.562Z,11.50
2023-02-04T04:47:59.854Z,9.80
2023-02-04T04:50:28.325Z,14.80
2023-02-04T04:52:56.702Z,16.10
2023-02-04T04:55:25.090Z,12.80
2023-02-04T04:57:53.676Z,16.60
2023-02-04T05:00:22.155Z,13.00
2023-02-04T05:02:50.542Z,12.90
2023-02-04T05:05:18.899Z,15.20
2023-02-04T05:07:47.230Z,21.50
2023-02-04T05:10:16.206Z,16.40
2023-02-04T05:12:44.601Z,13.00
2023-02-04T05:15:15.517Z,17.40
2023-02-04T05:17:43.891Z,13.40
2023-02-04T05:20:12.350Z,12.30
2023-02-04T05:22:41.271Z,8.50
2023-02-04T05:25:09.590Z,16.30
2023-02-04T05:27:37.928Z,10.00
2023-02-04T05:30:06.524Z,13.60
2023-02-04T05:32:35.846Z,10.70
2023-02-04T05:35:05.611Z,14.60
2023-02-04T05:37:34.468Z,24.30
2023-02-04T05:40:03.314Z,16.90
2023-02-04T05:42:32.110Z,15.60
2023-02-04T05:45:00.557Z,15.70
2023-02-04T05:47:29.269Z,18.20
2023-02-04T05:49:57.960Z,13.00
2023-02-04T05:52:26.443Z,14.20
2023-02-04T05:54:58.102Z,16.00
2023-02-04T05:57:27.143Z,13.70
2023-02-04T05:59:55.302Z,15.80
2023-02-04T06:02:24.067Z,16.10
2023-02-04T06:04:52.541Z,20.80
2023-02-04T06:07:21.261Z,25.90
2023-02-04T06:09:49.710Z,23.90
2023-02-04T06:12:18.105Z,24.10
2023-02-04T06:14:46.265Z,19.90
2023-02-04T06:17:18.028Z,17.50
2023-02-04T06:19:46.320Z,17.80
2023-02-04T06:22:17.655Z,16.60
2023-02-04T06:24:49.823Z,20.20
2023-02-04T06:27:23.559Z,24.80
2023-02-04T06:29:54.812Z,21.80
2023-02-04T06:32:23.372Z,17.20
2023-02-04T06:34:51.747Z,18.40
2023-02-04T06:37:20.531Z,17.60
2023-02-04T06:39:48.581Z,15.90
2023-02-04T06:42:16.967Z,19.30
2023-02-04T06:44:45.052Z,14.40
2023-02-04T06:47:16.307Z,25.20
2023-02-04T06:49:44.524Z,21.50
2023-02-04T06:52:13.038Z,18.00
2023-02-04T06:54:44.451Z,16.30
2023-02-04T06:57:12.636Z,15.80
2023-02-04T06:59:43.363Z,13.80
2023-02-04T07:02:12.614Z,18.20
2023-02-04T07:04:51.174Z,17.70
2023-02-04T07:10:18.529Z,14.60
2023-02-04T07:13:06.744Z,18.80
2023-02-04T07:15:35.818Z,19.00
2023-02-04T07:18:04.466Z,16.40
2023-02-04T07:20:33.051Z,16.30
2023-02-04T07:23:01.554Z,14.30
2023-02-04T07:25:29.810Z,15.30
2023-02-04T07:27:59.523Z,17.30
2023-02-04T07:30:27.924Z,16.80
2023-02-04T07:32:56.364Z,18.40
2023-02-04T07:35:24.784Z,18.80
2023-02-04T07:37:52.997Z,20.20
2023-02-04T07:40:28.946Z,16.90
2023-02-04T07:42:57.886Z,14.70
2023-02-04T07:45:28.317Z,22.90
2023-02-04T07:47:56.597Z,20.60
2023-02-04T07:50:25.481Z,25.60
2023-02-04T07:52:53.764Z,23.20
2023-02-04T07:55:21.948Z,18.00
2023-02-04T07:57:50.315Z,20.80
2023-02-04T08:00:19.351Z,10.90
2023-02-04T08:02:48.488Z,13.60
2023-02-04T08:05:16.951Z,11.70
2023-02-04T08:07:45.676Z,12.60
2023-02-04T08:10:13.841Z,12.10
2023-02-04T08:12:42.166Z,15.30
2023-02-04T08:15:10.612Z,13.90
2023-02-04T08:17:39.422Z,16.40
2023-02-04T08:20:09.857Z,14.10
2023-02-04T08:22:38.597Z,8.80
2023-02-04T08:25:07.619Z,13.20
2023-02-04T08:27:36.212Z,17.60
2023-02-04T08:30:10.581Z,13.40
2023-02-04T08:32:43.923Z,11.70
2023-02-04T08:35:12.849Z,15.30
2023-02-04T08:37:41.093Z,18.10
2023-02-04T08:40:11.031Z,19.30
2023-02-04T08:42:39.491Z,14.60
2023-02-04T08:45:08.154Z,16.30
2023-02-04T08:47:37.807Z,10.90
2023-02-04T08:50:07.610Z,17.90
2023-02-04T08:52:36.913Z,19.00
2023-02-04T08:55:06.226Z,17.80
2023-02-04T08:57:35.226Z,30.30
2023-02-04T09:00:04.004Z,17.30
2023-02-04T09:02:36.670Z,15.60
2023-02-04T09:05:05.352Z,10.10
2023-02-04T09:07:33.975Z,18.30
2023-02-04T09:10:02.163Z,17.00
2023-02-04T09:12:30.617Z,16.70
2023-02-04T09:14:58.668Z,20.90
2023-02-04T09:17:26.854Z,20.20
2023-02-04T09:19:54.934Z,10.50
2023-02-04T09:22:23.169Z,14.60
2023-02-04T09:24:51.521Z,12.00
2023-02-04T09:27:20.194Z,20.90
2023-02-04T09:29:48.376Z,21.50
2023-02-04T09:32:16.865Z,19.10
2023-02-04T09:34:45.078Z,14.50
2023-02-04T09:37:13.225Z,19.10
2023-02-04T09:39:41.737Z,16.20
2023-02-04T09:42:13.370Z,11.80
2023-02-04T09:44:41.763Z,14.00
2023-02-04T09:47:10.283Z,10.60
2023-02-04T09:49:38.712Z,11.40
2023-02-04T09:52:10.926Z,15.90
2023-02-04T09:54:39.062Z,13.40
2023-02-04T09:57:18.366Z,17.70
2023-02-04T09:59:46.720Z,15.40
2023-02-04T10:02:24.636Z,9.60
2023-02-04T10:04:57.741Z,14.40
2023-02-04T10:07:27.496Z,14.50
2023-02-04T10:09:56.241Z,19.50
2023-02-04T10:12:24.676Z,16.50
2023-02-04T10:14:52.909Z,15.70
2023-02-04T10:17:22.150Z,15.40
2023-02-04T10:19:50.369Z,12.20
2023-02-04T10:22:20.444Z,12.50
2023-02-04T10:24:49.252Z,13.80
2023-02-04T10:27:17.764Z,15.60
2023-02-04T10:29:59.117Z,13.20
2023-02-04T10:32:32.223Z,18.60
2023-02-04T10:35:02.082Z,12.10
2023-02-04T10:37:32.300Z,14.30
2023-02-04T10:42:30.125Z,13.60
2023-02-04T10:44:58.685Z,9.70
2023-02-04T10:47:31.073Z,11.00
2023-02-04T10:50:05.453Z,12.10
2023-02-04T10:52:38.749Z,10.70
2023-02-04T10:55:20.949Z,11.20
2023-02-04T10:57:50.131Z,13.00
2023-02-04T11:00:21.663Z,13.90
2023-02-04T11:03:03.550Z,9.00
2023-02-04T11:05:33.938Z,14.50
2023-02-04T11:08:03.031Z,11.70
2023-02-04T11:10:33.583Z,11.40
2023-02-04T11:13:05.139Z,11.70
2023-02-04T11:16:24.096Z,13.10
2023-02-04T11:19:02.204Z,12.50
2023-02-04T11:21:33.126Z,15.40
2023-02-04T11:24:16.627Z,11.50
2023-02-04T11:26:46.026Z,14.50
2023-02-04T11:29:17.325Z,10.90
2023-02-04T11:31:57.827Z,13.80
2023-02-04T11:34:28.081Z,14.70
2023-02-04T11:36:59.582Z,15.60
2023-02-04T11:39:42.643Z,18.50
2023-02-04T11:42:40.523Z,13.10
2023-02-04T11:45:28.989Z,12.00
2023-02-04T11:47:58.928Z,21.30
2023-02-04T11:52:59.708Z,11.50
2023-02-04T11:55:29.817Z,13.90
2023-02-04T11:57:58.573Z,10.90
2023-02-04T12:00:31.439Z,10.40
2023-02-04T12:03:12.098Z,8.40
2023-02-04T12:05:41.116Z,7.00
2023-02-04T12:08:11.833Z,10.00
2023-02-04T12:10:47.389Z,8.70
2023-02-04T12:13:23.650Z,11.80
2023-02-04T12:16:04.784Z,11.40
2023-02-04T12:18:34.231Z,12.70
2023-02-04T12:21:04.555Z,9.90
2023-02-04T12:26:01.160Z,9.50
2023-02-04T12:28:29.852Z,10.90
2023-02-04T12:30:58.864Z,10.10
2023-02-04T12:33:27.281Z,14.70
2023-02-04T12:35:55.825Z,14.50
2023-02-04T12:38:24.621Z,16.90
2023-02-04T12:40:52.811Z,14.80
2023-02-04T12:43:21.466Z,11.90
2023-02-04T12:45:50.290Z,11.10
2023-02-04T12:48:18.523Z,10.70
2023-02-04T12:50:49.196Z,16.70
2023-02-04T12:53:17.486Z,12.80
2023-02-04T12:55:46.016Z,10.10
2023-02-04T12:58:14.114Z,8.00
2023-02-04T13:00:42.402Z,10.20
2023-02-04T13:03:11.436Z,10.60
2023-02-04T16:16:25.485Z,12.20
2023-02-04T16:18:54.081Z,14.60
2023-02-04T16:21:22.274Z,17.10
2023-02-04T16:23:50.891Z,13.50
2023-02-04T16:26:19.270Z,14.20
2023-02-04T16:28:48.009Z,16.20
2023-02-04T16:31:19.462Z,16.80
2023-02-04T16:33:48.303Z,16.50
2023-02-04T16:36:18.462Z,14.50
2023-02-04T16:38:47.465Z,9.70
2023-02-04T16:41:16.307Z,19.40
2023-02-04T16:43:45.202Z,16.10
2023-02-04T16:46:20.062Z,14.30
2023-02-04T16:48:48.810Z,14.20
2023-02-04T16:51:20.794Z,15.60
2023-02-04T16:53:50.559Z,13.60
2023-02-04T16:56:18.783Z,13.20
2023-02-04T16:58:47.580Z,13.00
2023-02-04T17:01:17.409Z,16.30
2023-02-04T17:06:16.534Z,17.10
2023-02-04T17:08:44.987Z,11.60
2023-02-04T17:11:32.699Z,13.20
2023-02-04T17:14:08.722Z,17.60
2023-02-04T17:16:38.941Z,17.70
2023-02-04T17:19:09.643Z,14.70
2023-02-04T17:21:39.471Z,13.00
2023-02-04T17:24:08.349Z,12.80
2023-02-04T17:26:38.203Z,18.60
2023-02-04T17:29:07.889Z,16.70
2023-02-04T17:31:36.431Z,14.40
2023-02-04T17:34:05.566Z,13.30
2023-02-04T17:36:33.751Z,16.10
2023-02-04T17:39:02.226Z,16.40
2023-02-04T17:41:31.030Z,13.70
2023-02-04T17:44:03.643Z,16.50
2023-02-04T17:46:32.098Z,13.50
2023-02-04T17:49:00.289Z,13.90
2023-02-04T17:51:28.929Z,13.00
2023-02-04T17:53:57.416Z,10.80
2023-02-04T17:56:28.447Z,10.80
2023-02-04T17:58:56.975Z,14.50
2023-02-04T18:01:26.010Z,15.20
2023-02-04T18:03:54.911Z,21.60
2023-02-04T18:06:27.318Z,13.90
2023-02-04T18:09:01.725Z,19.20
2023-02-04T18:11:33.177Z,13.60
2023-02-04T18:14:05.239Z,12.20
2023-02-04T18:16:34.748Z,14.50
2023-02-04T18:19:15.882Z,15.30
2023-02-04T18:21:44.202Z,16.00
2023-02-04T18:24:18.402Z,13.50
2023-02-04T18:26:48.863Z,12.70
2023-02-04T18:29:33.266Z,12.40
2023-02-04T18:32:13.083Z,10.00
2023-02-04T18:34:46.844Z,15.60
2023-02-04T18:37:37.049Z,10.70
2023-02-04T18:42:42.063Z,14.10
2023-02-04T18:45:30.280Z,12.40
2023-02-04T18:48:00.326Z,15.70
2023-02-04T18:50:29.956Z,17.10
2023-02-04T18:53:22.691Z,13.90
2023-02-04T18:55:55.547Z,14.50
2023-02-04T18:58:27.074Z,14.50
2023-02-04T19:00:59.694Z,14.90
2023-02-04T19:03:33.554Z,11.30
2023-02-04T19:06:02.622Z,10.20
2023-02-04T19:08:43.132Z,11.00
2023-02-04T19:11:47.260Z,11.20
2023-02-04T19:14:35.050Z,7.60
2023-02-04T19:17:26.210Z,10.30
2023-02-04T19:20:07.568Z,10.10
2023-02-04T19:22:49.822Z,9.70
2023-02-04T19:25:35.727Z,10.20
2023-02-04T19:28:32.991Z,11.20
2023-02-04T19:31:01.517Z,10.50
2023-02-04T19:33:39.281Z,11.60
2023-02-04T19:36:15.068Z,13.60
2023-02-04T19:38:45.336Z,10.70
2023-02-04T19:44:18.537Z,16.90
2023-02-04T19:46:46.705Z,12.80
2023-02-04T19:49:23.744Z,10.30
2023-02-04T19:51:54.422Z,12.40
2023-02-04T19:54:25.313Z,12.60
2023-02-04T19:56:54.518Z,11.70
2023-02-04T19:59:27.027Z,12.10
2023-02-04T20:02:34.905Z,14.30
2023-02-04T20:05:03.307Z,12.00
2023-02-04T20:07:32.405Z,10.60
2023-02-04T20:10:30.495Z,22.90
2023-02-04T20:13:00.316Z,18.90
2023-02-04T20:15:28.941Z,20.60
2023-02-04T20:17:57.077Z,19.50
2023-02-04T20:20:30.611Z,11.90
2023-02-04T20:23:02.771Z,12.80
2023-02-04T20:25:37.084Z,11.60
2023-02-04T20:28:20.458Z,16.40
2023-02-04T20:30:50.439Z,13.70
2023-02-04T20:33:25.457Z,15.60
2023-02-04T20:36:22.306Z,18.50
2023-02-04T20:38:50.413Z,14.60
2023-02-04T20:41:21.793Z,18.00
2023-02-04T20:43:50.319Z,27.70
2023-02-04T20:46:24.598Z,22.20
2023-02-04T20:48:52.808Z,15.10
2023-02-04T20:51:24.174Z,19.90
2023-02-04T20:53:53.845Z,21.80
2023-02-04T20:56:35.370Z,32.60
2023-02-04T20:59:13.071Z,30.20
2023-02-04T21:01:44.278Z,27.40
2023-02-04T21:04:34.413Z,23.50
2023-02-04T21:07:11.043Z,16.10
2023-02-04T21:09:40.540Z,12.10
2023-02-04T21:12:09.114Z,16.70
2023-02-04T21:14:37.346Z,14.50
2023-02-04T21:17:05.524Z,12.70
2023-02-04T21:19:35.438Z,15.70
2023-02-04T21:22:03.592Z,19.30
2023-02-04T21:24:32.148Z,14.60
2023-02-04T21:27:00.517Z,14.10
2023-02-04T21:29:28.990Z,12.70
2023-02-04T21:31:57.571Z,12.70
2023-02-04T21:34:25.821Z,10.90
2023-02-04T21:36:54.362Z,20.80
2023-02-04T21:39:22.777Z,12.70
2023-02-04T21:42:10.333Z,13.50
2023-02-04T21:44:39.235Z,12.40
2023-02-04T21:47:08.413Z,11.10
2023-02-04T21:49:39.072Z,9.50
2023-02-04T21:52:08.615Z,11.20
2023-02-04T21:54:36.666Z,8.70
2023-02-04T21:57:05.197Z,13.10
2023-02-04T21:59:33.520Z,10.40
2023-02-04T22:02:01.912Z,9.00
2023-02-04T22:04:30.455Z,8.40
2023-02-04T22:06:59.128Z,10.60
2023-02-04T22:09:27.400Z,7.90
2023-02-04T22:11:55.487Z,10.40
2023-02-04T22:17:12.668Z,9.10
2023-02-04T22:19:40.867Z,8.80
2023-02-04T22:22:09.184Z,8.00
2023-02-04T22:24:37.526Z,8.00
2023-02-04T22:27:06.105Z,9.90
2023-02-04T22:29:34.569Z,7.00
2023-02-04T22:32:02.818Z,8.50
2023-02-04T22:34:31.659Z,9.70
2023-02-04T22:37:00.180Z,9.40
2023-02-04T22:39:28.310Z,7.80
2023-02-04T22:41:56.459Z,6.50
2023-02-04T22:44:25.060Z,8.40
2023-02-04T22:46:53.887Z,8.10
2023-02-04T22:49:22.304Z,8.90
2023-02-04T22:51:50.493Z,9.20
2023-02-04T22:54:18.566Z,10.50
2023-02-04T22:56:47.358Z,9.40
2023-02-04T22:59:15.566Z,7.20
2023-02-04T23:01:43.989Z,9.40
2023-02-04T23:04:12.176Z,8.20
2023-02-04T23:06:40.226Z,8.40
2023-02-04T23:09:08.915Z,10.10
2023-02-04T23:11:37.392Z,9.80
2023-02-04T23:14:06.191Z,10.80
2023-02-04T23:16:35.283Z,10.50
2023-02-04T23:19:03.719Z,9.60
2023-02-04T23:21:33.750Z,9.00
2023-02-04T23:24:02.058Z,9.00
2023-02-04T23:26:30.309Z,9.60
2023-02-04T23:29:00.903Z,10.60
2023-02-04T23:31:29.247Z,11.20
2023-02-04T23:33:57.753Z,8.40
2023-02-04T23:36:25.855Z,11.80
2023-02-04T23:38:54.066Z,10.80
2023-02-04T23:41:22.199Z,11.70
2023-02-04T23:43:50.255Z,11.60
2023-02-04T23:46:18.400Z,18.50
2023-02-04T23:48:46.494Z,13.50
2023-02-04T23:51:14.560Z,17.00
2023-02-04T23:53:42.640Z,17.00
2023-02-04T23:56:10.723Z,14.00
2023-02-04T23:58:39.332Z,13.60
